Time;durP1;ratioP1;P1;durP2;ratioP2;P2;SDS_P1;SDS_P2;PMS_P1;PMS_P2;Temp;Humidity;BMP_temperature;BMP_pressure;BME280_temperature;BME280_humidity;BME280_pressure;Samples;Min_cycle;Max_cycle;Signal;HPM_P1;HPM_P2
2024/03/25 00:01:07;;;;;;;2.28;0.60;;;5.60;99.90;;;;;;5054079;28;19916;-71
2024/03/25 00:03:33;;;;;;;;;;;5.60;99.90;;;;;;5054881;28;20040;-72
2024/03/25 00:05:59;;;;;;;6.82;0.75;;;5.50;99.90;;;;;;5051528;28;19908;-71
2024/03/25 00:08:24;;;;;;;;;;;5.50;99.90;;;;;;5052786;28;20017;-71
2024/03/25 00:10:50;;;;;;;4.90;0.90;;;5.50;99.90;;;;;;5052516;28;19912;-71
2024/03/25 00:13:15;;;;;;;;;;;5.50;99.90;;;;;;5054332;28;20055;-71
2024/03/25 00:15:41;;;;;;;3.80;1.10;;;5.50;99.90;;;;;;5053091;28;20394;-71
2024/03/25 00:18:07;;;;;;;;;;;5.40;99.90;;;;;;5053132;28;20021;-71
2024/03/25 00:20:32;;;;;;;6.72;0.85;;;5.30;99.90;;;;;;5049874;28;19916;-71
2024/03/25 00:22:58;;;;;;;;;;;5.30;99.90;;;;;;5055698;28;20051;-71
2024/03/25 00:25:23;;;;;;;1.90;0.50;;;5.20;99.90;;;;;;5057672;28;19908;-71
2024/03/25 00:27:48;;;;;;;;;;;5.20;99.90;;;;;;5057687;28;20025;-71
2024/03/25 00:30:14;;;;;;;2.97;0.98;;;5.20;99.90;;;;;;5052154;28;19917;-71
2024/03/25 00:32:39;;;;;;;3.90;0.90;;;5.10;99.90;;;;;;5051573;28;20115;-71
2024/03/25 00:35:05;;;;;;;;;;;5.10;99.90;;;;;;5050919;28;20029;-72
2024/03/25 00:37:31;;;;;;;4.30;1.17;;;5.10;99.90;;;;;;5055647;28;20369;-71
2024/03/25 00:39:56;;;;;;;;;;;5.10;99.90;;;;;;5052549;28;20025;-72
2024/03/25 00:42:22;;;;;;;6.88;0.95;;;5.20;99.90;;;;;;5052377;28;20434;-71
2024/03/25 00:44:47;;;;;;;;;;;5.20;99.90;;;;;;5054096;28;20455;-71
2024/03/25 00:47:13;;;;;;;9.07;1.35;;;5.20;99.90;;;;;;5053648;28;19908;-71
2024/03/25 00:49:38;;;;;;;;;;;5.30;99.90;;;;;;5051138;28;20439;-71
2024/03/25 00:52:04;;;;;;;6.10;1.30;;;5.30;99.90;;;;;;5050988;28;19911;-71
2024/03/25 00:54:30;;;;;;;7.63;1.38;;;5.20;99.90;;;;;;5049564;28;20487;-72
2024/03/25 00:56:55;;;;;;;;;;;5.20;99.90;;;;;;5051681;28;20032;-71
2024/03/25 00:59:20;;;;;;;11.10;2.38;;;5.10;99.90;;;;;;5053470;28;19989;-71
2024/03/25 01:01:46;;;;;;;;;;;5.10;99.90;;;;;;5054187;28;20021;-71
2024/03/25 01:04:11;;;;;;;7.47;1.25;;;5.00;99.90;;;;;;5050630;28;19905;-71
2024/03/25 01:06:37;;;;;;;;;;;5.00;99.90;;;;;;5056225;28;20028;-71
2024/03/25 01:09:04;;;;;;;2.60;1.33;;;5.00;99.90;;;;;;5049127;28;20500;-71
2024/03/25 01:11:30;;;;;;;4.53;1.00;;;5.10;99.90;;;;;;5052664;28;20407;-71
2024/03/25 01:13:56;;;;;;;3.47;1.85;;;5.10;99.90;;;;;;5054737;28;20032;-71
2024/03/25 01:16:21;;;;;;;;;;;5.10;99.90;;;;;;5053876;28;20103;-72
2024/03/25 01:18:47;;;;;;;3.13;1.27;;;5.20;99.90;;;;;;5053207;28;20286;-71
2024/03/25 01:21:12;;;;;;;;;;;5.20;99.90;;;;;;5057130;28;20059;-72
2024/03/25 01:23:38;;;;;;;5.78;0.98;;;5.20;99.90;;;;;;5056124;28;19904;-71
2024/03/25 01:26:03;;;;;;;;;;;5.20;99.90;;;;;;5054386;28;20390;-71
2024/03/25 01:28:29;;;;;;;4.05;1.52;;;5.20;99.90;;;;;;5050299;28;20348;-71
2024/03/25 01:30:54;;;;;;;;;;;5.20;99.90;;;;;;5055246;28;20052;-71
2024/03/25 01:33:20;;;;;;;3.35;1.10;;;5.20;99.90;;;;;;5054714;28;20355;-71
2024/03/25 01:35:45;;;;;;;;;;;5.20;99.90;;;;;;5051771;28;20040;-72
2024/03/25 01:38:11;;;;;;;5.57;1.23;;;5.30;99.90;;;;;;5051545;28;20224;-71
2024/03/25 01:40:36;;;;;;;;;;;5.30;99.90;;;;;;5052005;28;20025;-71
2024/03/25 01:43:03;;;;;;;4.93;1.92;;;5.30;99.90;;;;;;5057476;28;19933;-71
2024/03/25 01:45:32;;;;;;;9.25;1.20;;;5.30;99.90;;;;;;5051034;28;20537;-71
2024/03/25 01:48:02;;;;;;;6.75;0.93;;;5.30;99.90;;;;;;5053720;28;20075;-71
2024/03/25 01:50:29;;;;;;;3.03;0.77;;;5.30;99.90;;;;;;5053350;28;20017;-71
2024/03/25 01:52:56;;;;;;;6.00;1.33;;;5.30;99.90;;;;;;5050123;28;20119;-71
2024/03/25 01:55:24;;;;;;;6.75;2.03;;;5.30;99.90;;;;;;5051913;28;20098;-71
2024/03/25 01:57:49;;;;;;;7.65;2.25;;;5.30;99.90;;;;;;5051897;28;20061;-71
2024/03/25 02:00:16;;;;;;;;;;;5.30;99.90;;;;;;5052731;28;20106;-71
2024/03/25 02:02:44;;;;;;;5.30;1.20;;;5.30;99.90;;;;;;5051548;28;19909;-71
2024/03/25 02:05:10;;;;;;;5.57;1.42;;;5.30;99.90;;;;;;5052299;28;20108;-71
2024/03/25 02:07:36;;;;;;;8.45;1.67;;;5.30;99.90;;;;;;5053764;28;20046;-71
2024/03/25 02:10:03;;;;;;;;;;;5.30;99.90;;;;;;5053874;28;20021;-71
2024/03/25 02:12:29;;;;;;;4.78;1.73;;;5.30;99.90;;;;;;5054672;28;19977;-71
2024/03/25 02:14:55;;;;;;;4.43;1.13;;;5.30;99.90;;;;;;5050026;28;20095;-71
2024/03/25 02:17:20;;;;;;;;;;;5.30;99.90;;;;;;5053282;28;20459;-71
2024/03/25 02:19:46;;;;;;;4.63;1.50;;;5.30;99.90;;;;;;5050796;28;19909;-71
2024/03/25 02:22:11;;;;;;;;;;;5.30;99.90;;;;;;5056893;28;20032;-71
2024/03/25 02:24:39;;;;;;;2.90;1.80;;;5.30;99.90;;;;;;5057495;28;19962;-71
2024/03/25 02:27:07;;;;;;;5.85;1.38;;;5.30;99.90;;;;;;5053244;28;20040;-71
2024/03/25 02:29:34;;;;;;;5.55;1.60;;;5.30;99.90;;;;;;5057456;28;20475;-71
2024/03/25 02:31:59;;;;;;;2.72;1.35;;;5.30;99.90;;;;;;5058473;28;20106;-71
2024/03/25 02:34:25;;;;;;;;;;;5.30;99.90;;;;;;5055549;28;20053;-71
2024/03/25 02:36:51;;;;;;;1.85;1.10;;;5.30;99.90;;;;;;5057619;28;19905;-71
2024/03/25 02:39:17;;;;;;;4.53;1.13;;;5.30;99.90;;;;;;5056870;28;20025;-71
2024/03/25 02:41:42;;;;;;;;;;;5.30;99.90;;;;;;5059648;28;20033;-71
2024/03/25 02:44:08;;;;;;;4.35;1.20;;;5.30;99.90;;;;;;5054326;28;19916;-71
2024/03/25 02:46:34;;;;;;;;;;;5.30;99.90;;;;;;5055451;28;20098;-71
2024/03/25 02:49:00;;;;;;;2.80;1.20;;;5.30;99.90;;;;;;5056745;28;19909;-71
2024/03/25 02:51:25;;;;;;;;;;;5.30;99.90;;;;;;5055809;28;20541;-71
2024/03/25 02:53:51;;;;;;;3.72;1.52;;;5.30;99.90;;;;;;5055464;28;19908;-71
2024/03/25 02:56:16;;;;;;;;;;;5.30;99.90;;;;;;5057967;28;20307;-71
2024/03/25 02:58:42;;;;;;;7.60;1.85;;;5.30;99.90;;;;;;5054591;28;19962;-72
2024/03/25 03:01:07;;;;;;;;;;;5.30;99.90;;;;;;5058891;28;20054;-72
2024/03/25 03:03:32;;;;;;;5.95;1.77;;;5.30;99.90;;;;;;5056226;28;20984;-71
2024/03/25 03:05:58;;;;;;;;;;;5.30;99.90;;;;;;5053497;28;20032;-71
2024/03/25 03:08:23;;;;;;;7.78;1.98;;;5.20;99.90;;;;;;5055319;28;19904;-71
2024/03/25 03:10:49;;;;;;;;;;;5.30;99.90;;;;;;5053969;28;20043;-71
2024/03/25 03:13:14;;;;;;;3.70;1.83;;;5.30;99.90;;;;;;5059557;28;19905;-71
2024/03/25 03:15:43;;;;;;;;;;;5.30;99.90;;;;;;5054166;28;20021;-71
2024/03/25 03:18:09;;;;;;;6.85;1.20;;;5.30;99.90;;;;;;5057531;28;19904;-71
2024/03/25 03:20:35;;;;;;;;;;;5.30;99.90;;;;;;5056326;28;20739;-71
2024/03/25 03:23:00;;;;;;;8.88;2.03;;;5.30;99.90;;;;;;5060078;28;19954;-71
2024/03/25 03:25:26;;;;;;;7.65;1.70;;;5.30;99.90;;;;;;5053997;28;20013;-71
2024/03/25 03:27:51;;;;;;;9.07;1.25;;;5.30;99.90;;;;;;5057645;28;20025;-71
2024/03/25 03:30:17;;;;;;;7.38;1.92;;;5.30;99.90;;;;;;5055726;28;20031;-71
2024/03/25 03:32:42;;;;;;;4.63;1.42;;;5.30;99.90;;;;;;5057682;28;20032;-71
2024/03/25 03:35:07;;;;;;;;;;;5.30;99.90;;;;;;5055483;28;20399;-70
2024/03/25 03:37:33;;;;;;;5.57;1.40;;;5.30;99.90;;;;;;5057118;28;19909;-72
2024/03/25 03:39:58;;;;;;;;;;;5.30;99.90;;;;;;5058668;28;20024;-72
2024/03/25 03:42:24;;;;;;;5.10;1.30;;;5.30;99.90;;;;;;5054140;28;19908;-72
2024/03/25 03:44:50;;;;;;;;;;;5.30;99.90;;;;;;5054755;28;20020;-72
2024/03/25 03:47:15;;;;;;;6.75;1.40;;;5.40;99.90;;;;;;5052572;28;19904;-72
2024/03/25 03:49:41;;;;;;;;;;;5.40;99.90;;;;;;5058596;28;21000;-73
2024/03/25 03:52:06;;;;;;;5.60;1.92;;;5.40;99.90;;;;;;5054275;28;19966;-72
2024/03/25 03:54:32;;;;;;;;;;;5.40;99.90;;;;;;5055907;28;20341;-72
2024/03/25 03:56:57;;;;;;;5.70;2.13;;;5.40;99.90;;;;;;5054898;28;19955;-72
2024/03/25 03:59:22;;;;;;;;;;;5.40;99.90;;;;;;5059024;28;20093;-72
2024/03/25 04:01:48;;;;;;;8.63;2.75;;;5.40;99.90;;;;;;5049855;28;20386;-72
2024/03/25 04:04:14;;;;;;;;;;;5.40;99.90;;;;;;5054534;28;20096;-72
2024/03/25 04:06:40;;;;;;;6.72;1.98;;;5.40;99.90;;;;;;5051139;28;19909;-72
2024/03/25 04:09:09;;;;;;;7.43;2.83;;;5.30;99.90;;;;;;5057227;28;20391;-72
2024/03/25 04:11:37;;;;;;;6.50;2.15;;;5.40;99.90;;;;;;5050255;28;20032;-72
2024/03/25 04:14:03;;;;;;;2.92;1.77;;;5.40;99.90;;;;;;5054307;28;20112;-72
2024/03/25 04:16:30;;;;;;;;;;;5.40;99.90;;;;;;5058778;28;20120;-71
2024/03/25 04:18:56;;;;;;;3.85;1.95;;;5.30;99.90;;;;;;5051466;28;19917;-72
2024/03/25 04:21:22;;;;;;;;;;;5.30;99.90;;;;;;5058179;28;20033;-72
2024/03/25 04:23:49;;;;;;;5.18;1.80;;;5.30;99.90;;;;;;5049065;28;20003;-72
2024/03/25 04:26:14;;;;;;;16.08;3.58;;;5.30;99.90;;;;;;5053621;28;20104;-72
2024/03/25 04:28:40;;;;;;;;;;;5.30;99.90;;;;;;5056082;28;20398;-72
2024/03/25 04:31:07;;;;;;;3.78;1.88;;;5.30;99.90;;;;;;5052144;28;19995;-72
2024/03/25 04:33:33;;;;;;;3.03;1.23;;;5.30;99.90;;;;;;5056669;28;20024;-72
2024/03/25 04:35:59;;;;;;;;;;;5.30;99.90;;;;;;5059970;28;20032;-72
2024/03/25 04:38:24;;;;;;;5.78;2.03;;;5.30;99.90;;;;;;5051719;28;19905;-72
2024/03/25 04:40:50;;;;;;;;;;;5.30;99.90;;;;;;5056183;28;20031;-72
2024/03/25 04:43:15;;;;;;;9.15;2.30;;;5.30;99.90;;;;;;5050578;28;19962;-72
2024/03/25 04:45:41;;;;;;;;;;;5.30;99.90;;;;;;5055953;28;20028;-72
2024/03/25 04:48:07;;;;;;;6.15;1.63;;;5.20;99.90;;;;;;5052935;28;19976;-72
2024/03/25 04:50:33;;;;;;;4.32;1.70;;;5.20;99.90;;;;;;5054637;28;20045;-72
2024/03/25 04:52:59;;;;;;;;;;;5.20;99.90;;;;;;5056465;28;20032;-72
2024/03/25 04:55:24;;;;;;;6.35;1.15;;;5.20;99.90;;;;;;5051944;28;19913;-72
2024/03/25 04:57:50;;;;;;;5.15;1.73;;;5.20;99.90;;;;;;5056511;28;20016;-72
2024/03/25 05:00:15;;;;;;;;;;;5.20;99.90;;;;;;5058576;28;20029;-70
2024/03/25 05:02:41;;;;;;;5.80;1.73;;;5.10;99.90;;;;;;5051621;28;19908;-70
2024/03/25 05:05:07;;;;;;;;;;;5.00;99.90;;;;;;5051097;28;20036;-70
2024/03/25 05:07:33;;;;;;;7.00;1.90;;;5.00;99.90;;;;;;5055292;28;19915;-70
2024/03/25 05:09:59;;;;;;;8.13;0.90;;;4.90;99.90;;;;;;5057265;28;20024;-71
2024/03/25 05:12:29;;;;;;;;;;;4.80;99.90;;;;;;5052474;28;20415;-71
2024/03/25 05:14:58;;;;;;;6.68;2.67;;;4.70;99.90;;;;;;5052309;28;19978;-71
2024/03/25 05:17:23;;;;;;;6.85;1.80;;;4.70;99.90;;;;;;5052618;28;20033;-70
2024/03/25 05:19:49;;;;;;;;;;;4.70;99.90;;;;;;5054293;28;20373;-70
2024/03/25 05:22:14;;;;;;;11.35;2.63;;;4.70;99.90;;;;;;5055133;28;20340;-70
2024/03/25 05:24:40;;;;;;;;;;;4.80;99.90;;;;;;5052167;28;20036;-70
2024/03/25 05:27:05;;;;;;;3.13;1.33;;;4.80;99.90;;;;;;5052387;28;20378;-70
2024/03/25 05:29:31;;;;;;;;;;;4.90;99.90;;;;;;5054994;28;20067;-71
2024/03/25 05:32:00;;;;;;;6.75;1.63;;;5.00;99.90;;;;;;5055116;28;19908;-71
2024/03/25 05:34:26;;;;;;;10.23;1.58;;;5.00;99.90;;;;;;5061263;28;20024;-71
2024/03/25 05:36:52;;;;;;;4.68;1.85;;;5.00;99.90;;;;;;5055976;28;20115;-71
2024/03/25 05:39:18;;;;;;;;;;;5.10;99.90;;;;;;5055043;28;20027;-71
2024/03/25 05:41:43;;;;;;;7.85;1.70;;;5.10;99.90;;;;;;5048136;28;19913;-71
2024/03/25 05:44:09;;;;;;;;;;;5.20;99.90;;;;;;5054001;28;20538;-71
2024/03/25 05:46:34;;;;;;;6.15;1.98;;;5.20;99.90;;;;;;5053171;28;19904;-71
2024/03/25 05:49:03;;;;;;;;;;;5.20;99.90;;;;;;5053466;28;20021;-71
2024/03/25 05:51:30;;;;;;;4.95;2.08;;;5.20;99.90;;;;;;5048762;28;20350;-71
2024/03/25 05:53:56;;;;;;;11.55;1.77;;;5.20;99.90;;;;;;5053132;28;20024;-71
2024/03/25 05:56:21;;;;;;;;;;;5.30;99.90;;;;;;5053230;28;20021;-71
2024/03/25 05:58:47;;;;;;;9.50;2.55;;;5.40;99.90;;;;;;5053479;28;20286;-71
2024/03/25 06:01:12;;;;;;;;;;;5.40;99.90;;;;;;5056778;28;20039;-71
2024/03/25 06:03:38;;;;;;;3.17;1.65;;;5.40;99.90;;;;;;5060011;28;19934;-71
2024/03/25 06:06:03;;;;;;;;;;;5.40;99.90;;;;;;5059124;28;20082;-71
2024/03/25 06:08:29;;;;;;;11.07;2.90;;;5.50;99.90;;;;;;5055600;28;19939;-71
2024/03/25 06:10:54;;;;;;;;;;;5.50;99.90;;;;;;5058033;28;20535;-71
2024/03/25 06:13:20;;;;;;;6.82;1.90;;;5.60;99.90;;;;;;5055818;28;19965;-71
2024/03/25 06:15:46;;;;;;;;;;;5.60;99.90;;;;;;5053906;28;20029;-71
2024/03/25 06:18:11;;;;;;;4.22;1.58;;;5.60;99.90;;;;;;5054919;28;19904;-70
2024/03/25 06:20:37;;;;;;;;;;;5.70;99.90;;;;;;5058230;28;20028;-71
2024/03/25 06:23:03;;;;;;;5.78;1.67;;;5.70;99.90;;;;;;5054900;28;19919;-71
2024/03/25 06:25:29;;;;;;;;;;;5.70;99.90;;;;;;5058504;28;20391;-71
2024/03/25 06:27:54;;;;;;;4.63;1.35;;;5.80;99.90;;;;;;5054058;28;19916;-71
2024/03/25 06:35:48;;;;;;;6.90;1.38;;;5.80;99.90;;;;;;5059691;28;20039;-71
2024/03/25 06:38:14;;;;;;;;;;;5.80;99.90;;;;;;5054529;28;20029;-71
2024/03/25 06:40:39;;;;;;;6.93;1.65;;;5.90;99.90;;;;;;5055928;28;19904;-70
2024/03/25 06:43:05;;;;;;;;;;;5.80;99.90;;;;;;5052877;28;20021;-71
2024/03/25 06:45:30;;;;;;;9.05;2.25;;;5.80;99.90;;;;;;5063187;28;20354;-71
2024/03/25 06:47:57;;;;;;;;;;;5.80;99.90;;;;;;5054805;28;20025;-71
2024/03/25 06:50:23;;;;;;;6.40;2.80;;;5.90;99.90;;;;;;5054674;28;20282;-71
2024/03/25 06:52:49;;;;;;;4.47;2.10;;;5.90;99.90;;;;;;5052905;28;20033;-71
2024/03/25 06:55:15;;;;;;;;;;;5.90;99.90;;;;;;5054758;28;20021;-71
2024/03/25 06:57:40;;;;;;;5.60;1.55;;;6.00;99.90;;;;;;5053398;28;19905;-71
2024/03/25 07:00:09;;;;;;;;;;;6.00;99.90;;;;;;5056351;28;20021;-71
2024/03/25 07:02:35;;;;;;;10.27;2.47;;;6.00;99.90;;;;;;5055418;28;19934;-71
2024/03/25 07:05:01;;;;;;;;;;;6.10;99.90;;;;;;5054422;28;20028;-71
2024/03/25 07:07:26;;;;;;;12.05;2.95;;;6.10;99.90;;;;;;5056766;28;20366;-72
2024/03/25 07:09:51;;;;;;;;;;;6.10;99.90;;;;;;5056119;28;20028;-71
2024/03/25 07:12:18;;;;;;;10.40;2.58;;;6.10;99.90;;;;;;5059061;28;19958;-70
2024/03/25 07:14:43;;;;;;;11.13;2.35;;;6.20;99.90;;;;;;5058872;28;20269;-71
2024/03/25 07:17:09;;;;;;;;;;;6.20;99.90;;;;;;5057530;28;20450;-72
2024/03/25 07:19:34;;;;;;;7.50;2.15;;;6.20;99.90;;;;;;5053095;28;19915;-71
2024/03/25 07:21:59;;;;;;;;;;;6.30;99.90;;;;;;5054982;28;20017;-71
2024/03/25 07:24:25;;;;;;;3.30;1.73;;;6.30;99.90;;;;;;5055438;28;19946;-72
2024/03/25 07:26:51;;;;;;;;;;;6.20;99.90;;;;;;5057012;28;20146;-71
2024/03/25 07:29:17;;;;;;;3.70;2.00;;;6.30;99.90;;;;;;5052173;28;19931;-71
2024/03/25 07:31:42;;;;;;;;;;;6.30;99.90;;;;;;5057884;28;20357;-70
2024/03/25 07:34:11;;;;;;;8.93;2.35;;;6.30;99.90;;;;;;5061146;28;20309;-71
2024/03/25 07:36:37;;;;;;;7.22;2.45;;;6.40;99.90;;;;;;5058541;28;20396;-71
2024/03/25 07:39:05;;;;;;;;;;;6.40;99.90;;;;;;5058560;28;20029;-71
2024/03/25 07:41:30;;;;;;;12.73;3.80;;;6.50;99.90;;;;;;5050967;28;20000;-70
2024/03/25 07:43:56;;;;;;;;;;;6.50;99.90;;;;;;5055135;28;20112;-70
2024/03/25 07:46:21;;;;;;;14.63;3.13;;;6.60;99.90;;;;;;5056496;28;19905;-70
2024/03/25 07:48:47;;;;;;;;;;;6.70;99.90;;;;;;5053978;28;20076;-70
2024/03/25 07:51:12;;;;;;;9.63;2.50;;;6.80;99.90;;;;;;5057967;28;19913;-70
2024/03/25 07:53:38;;;;;;;;;;;6.80;99.90;;;;;;5051494;28;20033;-70
2024/03/25 07:56:04;;;;;;;16.95;2.72;;;6.90;99.90;;;;;;5054894;28;19909;-71
2024/03/25 07:58:30;;;;;;;9.77;2.67;;;6.90;99.90;;;;;;5057063;28;20497;-71
2024/03/25 08:00:56;;;;;;;;;;;6.90;99.90;;;;;;5058828;28;20063;-71
2024/03/25 08:03:22;;;;;;;8.98;2.08;;;6.90;99.90;;;;;;5055532;28;20232;-71
2024/03/25 08:05:47;;;;;;;;;;;6.90;99.90;;;;;;5055976;28;20108;-72
2024/03/25 08:08:13;;;;;;;8.27;1.45;;;7.00;99.90;;;;;;5056169;28;19991;-71
2024/03/25 08:10:38;;;;;;;;;;;7.10;99.90;;;;;;5054398;28;20427;-73
2024/03/25 08:13:04;;;;;;;12.88;3.53;;;7.20;99.90;;;;;;5052482;28;19909;-71
2024/03/25 08:15:29;;;;;;;;;;;7.30;99.90;;;;;;5055923;28;20013;-71
2024/03/25 08:17:55;;;;;;;7.82;2.60;;;7.40;99.90;;;;;;5050690;28;20787;-71
2024/03/25 08:20:20;;;;;;;;;;;7.50;99.90;;;;;;5049107;28;20024;-71
2024/03/25 08:22:46;;;;;;;5.97;2.35;;;7.60;99.90;;;;;;5054825;28;19908;-71
2024/03/25 08:25:12;;;;;;;;;;;7.70;99.90;;;;;;5059174;28;20059;-71
2024/03/25 08:27:37;;;;;;;13.75;3.80;;;7.60;99.90;;;;;;5052353;28;19915;-71
2024/03/25 08:30:03;;;;;;;;;;;7.70;99.90;;;;;;5059569;28;20012;-71
2024/03/25 08:32:29;;;;;;;12.30;4.00;;;7.70;99.90;;;;;;5054535;28;19928;-71
2024/03/25 08:34:54;;;;;;;;;;;7.70;99.90;;;;;;5063132;28;20059;-71
2024/03/25 08:37:20;;;;;;;13.52;2.80;;;7.80;99.90;;;;;;5052139;28;19915;-71
2024/03/25 08:39:46;;;;;;;;;;;7.80;99.90;;;;;;5051119;28;20079;-71
2024/03/25 08:42:12;;;;;;;20.23;5.67;;;7.70;99.90;;;;;;5050119;28;19917;-71
2024/03/25 08:44:37;;;;;;;;;;;7.70;99.90;;;;;;5058174;28;20025;-70
2024/03/25 08:47:03;;;;;;;12.57;2.88;;;7.70;99.90;;;;;;5057295;28;20299;-71
2024/03/25 08:49:28;;;;;;;;;;;7.60;99.90;;;;;;5055499;28;20506;-71
2024/03/25 08:51:54;;;;;;;6.53;2.35;;;7.50;99.90;;;;;;5053892;28;19982;-71
2024/03/25 08:54:19;;;;;;;;;;;7.40;99.90;;;;;;5055807;28;20024;-71
2024/03/25 08:56:45;;;;;;;13.13;3.08;;;7.40;99.90;;;;;;5060727;28;19916;-71
2024/03/25 08:59:10;;;;;;;;;;;7.50;99.90;;;;;;5058440;28;20028;-72
2024/03/25 09:01:36;;;;;;;7.57;2.88;;;7.60;99.90;;;;;;5050594;28;19933;-71
2024/03/25 09:04:01;;;;;;;;;;;7.70;99.90;;;;;;5058661;28;20448;-72
2024/03/25 09:06:27;;;;;;;9.60;2.33;;;7.90;99.90;;;;;;5061432;28;20258;-71
2024/03/25 09:11:37;;;;;;;13.05;2.83;;;8.10;99.90;;;;;;5057901;28;19912;-72
2024/03/25 09:14:04;;;;;;;;;;;8.10;99.90;;;;;;5056800;28;20017;-71
2024/03/25 09:16:30;;;;;;;15.00;3.90;;;8.20;99.90;;;;;;5051638;28;20363;-72
2024/03/25 09:18:55;;;;;;;;;;;8.20;99.90;;;;;;5060459;28;20037;-71
2024/03/25 09:21:21;;;;;;;12.73;2.47;;;8.20;99.90;;;;;;5056172;28;20351;-72
2024/03/25 09:23:47;;;;;;;;;;;8.20;99.90;;;;;;5052928;28;20024;-72
2024/03/25 09:26:13;;;;;;;19.20;3.35;;;8.30;99.90;;;;;;5052016;28;19905;-71
2024/03/25 09:28:39;;;;;;;;;;;8.50;99.90;;;;;;5055832;28;20040;-72
2024/03/25 09:31:05;;;;;;;14.85;3.55;;;8.60;99.90;;;;;;5054438;28;19905;-72
2024/03/25 09:33:31;;;;;;;8.35;4.82;;;8.70;99.90;;;;;;5055753;28;20021;-72
2024/03/25 09:35:56;;;;;;;;;;;8.80;99.90;;;;;;5059990;28;20173;-72
2024/03/25 09:38:22;;;;;;;5.95;2.65;;;8.80;99.90;;;;;;5057950;28;19915;-71
2024/03/25 09:40:47;;;;;;;;;;;8.80;99.90;;;;;;5049037;28;20529;-71
2024/03/25 09:43:22;;;;;;;9.13;2.15;;;8.70;99.90;;;;;;5050663;28;19920;-71
2024/03/25 09:45:49;;;;;;;15.63;4.03;;;8.70;99.90;;;;;;5057564;28;20471;-71
2024/03/25 09:48:18;;;;;;;9.15;3.63;;;8.80;99.90;;;;;;5052127;28;20021;-71
2024/03/25 09:50:45;;;;;;;9.30;2.38;;;8.80;99.90;;;;;;5052491;28;20025;-71
2024/03/25 09:53:11;;;;;;;10.77;2.60;;;8.80;99.90;;;;;;5054108;28;20641;-72
2024/03/25 09:55:36;;;;;;;;;;;8.90;99.90;;;;;;5050485;28;20132;-71
2024/03/25 09:58:03;;;;;;;10.38;2.00;;;9.00;99.80;;;;;;5051039;28;19912;-72
2024/03/25 10:00:30;;;;;;;9.27;2.15;;;9.10;99.50;;;;;;5050917;28;20027;-72
2024/03/25 10:02:55;;;;;;;11.25;2.05;;;9.10;97.90;;;;;;5054359;28;20055;-72
2024/03/25 10:05:21;;;;;;;;;;;9.10;98.10;;;;;;5052680;28;20028;-72
2024/03/25 10:07:46;;;;;;;11.68;1.73;;;9.10;96.20;;;;;;5049731;28;19999;-72
2024/03/25 10:10:12;;;;;;;;;;;9.10;94.60;;;;;;5051694;28;20031;-72
2024/03/25 10:12:37;;;;;;;3.75;0.82;;;9.00;95.00;;;;;;5057009;28;19931;-72
2024/03/25 10:15:03;;;;;;;;;;;9.10;94.30;;;;;;5053105;28;20510;-72
2024/03/25 10:17:31;;;;;;;5.72;1.30;;;9.20;94.20;;;;;;5031236;28;19913;-71
2024/03/25 10:19:57;;;;;;;9.60;1.90;;;9.20;93.90;;;;;;5053261;28;20135;-71
2024/03/25 10:22:22;;;;;;;;;;;9.20;94.10;;;;;;5055856;28;20025;-71
2024/03/25 10:24:48;;;;;;;15.52;1.58;;;9.20;94.70;;;;;;5050665;28;19905;-71
2024/03/25 10:27:17;;;;;;;;;;;9.20;95.20;;;;;;5050393;28;20462;-72
2024/03/25 10:29:43;;;;;;;11.90;1.90;;;9.20;94.80;;;;;;5051391;28;19908;-71
2024/03/25 10:32:08;;;;;;;;;;;9.20;95.10;;;;;;5051366;28;20024;-71
2024/03/25 10:34:34;;;;;;;12.48;1.77;;;9.20;94.90;;;;;;5056016;28;19947;-71
2024/03/25 10:37:00;;;;;;;;;;;9.20;95.30;;;;;;5057841;28;20061;-71
2024/03/25 10:39:27;;;;;;;10.50;2.22;;;9.30;95.40;;;;;;5051468;28;20347;-71
2024/03/25 10:41:57;;;;;;;5.15;1.30;;;9.30;93.80;;;;;;5052179;28;20033;-71
2024/03/25 10:44:28;;;;;;;3.45;1.20;;;9.40;93.50;;;;;;5055812;28;20023;-71
2024/03/25 10:46:58;;;;;;;4.57;1.55;;;9.40;93.70;;;;;;5052083;28;20492;-71
2024/03/25 10:49:32;;;;;;;6.40;1.63;;;9.40;93.90;;;;;;5053904;28;20025;-71
2024/03/25 10:52:00;;;;;;;9.07;2.17;;;9.50;94.70;;;;;;5053448;28;20061;-71
2024/03/25 10:54:26;;;;;;;2.85;1.13;;;9.50;95.30;;;;;;5055632;28;20096;-71
2024/03/25 10:56:52;;;;;;;8.35;1.52;;;9.50;95.60;;;;;;5053041;28;20076;-71
2024/03/25 10:59:20;;;;;;;7.22;2.00;;;9.40;95.20;;;;;;5062574;28;20039;-71
2024/03/25 11:01:46;;;;;;;11.88;1.77;;;9.40;95.50;;;;;;5058457;28;20051;-71
2024/03/25 11:04:11;;;;;;;;;;;9.40;95.20;;;;;;5053955;28;20531;-71
2024/03/25 11:06:37;;;;;;;4.95;1.70;;;9.30;95.40;;;;;;5055778;28;19986;-71
2024/03/25 11:09:02;;;;;;;;;;;9.40;94.90;;;;;;5058633;28;20021;-71
2024/03/25 11:11:33;;;;;;;9.27;1.92;;;9.30;95.20;;;;;;5055205;28;20014;-71
2024/03/25 11:13:58;;;;;;;5.63;1.17;;;9.30;95.20;;;;;;5054761;28;20100;-72
2024/03/25 11:16:33;;;;;;;;;;;9.30;94.60;;;;;;5054030;28;20103;-71
2024/03/25 11:19:03;;;;;;;10.57;1.85;;;9.40;95.00;;;;;;5061181;28;20567;-71
2024/03/25 11:21:28;;;;;;;14.35;3.20;;;9.50;95.60;;;;;;5055497;28;20021;-70
2024/03/25 11:23:54;;;;;;;;;;;9.70;95.00;;;;;;5061903;28;20024;-71
2024/03/25 11:26:30;;;;;;;7.00;1.52;;;9.80;94.40;;;;;;5051780;28;19908;-71
2024/03/25 11:28:56;;;;;;;8.88;2.00;;;9.90;93.50;;;;;;5057237;28;20032;-70
2024/03/25 11:31:25;;;;;;;5.55;1.83;;;9.90;93.00;;;;;;5051740;28;20028;-72
2024/03/25 11:33:51;;;;;;;6.72;1.42;;;9.80;93.20;;;;;;5059100;28;20070;-72
2024/03/25 11:36:20;;;;;;;;;;;9.90;93.20;;;;;;5057860;28;20016;-72
2024/03/25 11:38:46;;;;;;;9.95;1.60;;;9.80;92.30;;;;;;5053424;28;20336;-72
2024/03/25 11:41:12;;;;;;;;;;;9.80;92.80;;;;;;5056809;28;20051;-72
2024/03/25 11:43:38;;;;;;;4.20;1.40;;;9.80;93.20;;;;;;5056542;28;19996;-72
2024/03/25 11:46:03;;;;;;;;;;;9.90;92.70;;;;;;5055205;28;20119;-72
2024/03/25 11:48:29;;;;;;;12.13;2.42;;;10.00;92.40;;;;;;5055772;28;19909;-72
2024/03/25 11:50:55;;;;;;;6.85;1.45;;;10.00;92.40;;;;;;5054120;28;20049;-72
2024/03/25 11:53:20;;;;;;;;;;;10.10;92.70;;;;;;5052612;28;20428;-72
2024/03/25 11:55:47;;;;;;;10.23;1.58;;;10.10;92.80;;;;;;5050972;28;19909;-72
2024/03/25 11:58:13;;;;;;;10.43;1.52;;;10.20;93.20;;;;;;5053069;28;20032;-72
2024/03/25 12:00:49;;;;;;;5.68;1.55;;;10.20;92.80;;;;;;5053973;28;20438;-70
2024/03/25 12:03:15;;;;;;;10.07;1.60;;;10.20;92.70;;;;;;5061152;28;20025;-71
2024/03/25 12:05:41;;;;;;;7.80;1.67;;;10.30;93.00;;;;;;5051000;28;20059;-71
2024/03/25 12:08:13;;;;;;;;;;;10.30;92.70;;;;;;5053752;28;20048;-71
2024/03/25 12:13:25;;;;;;;5.65;1.70;;;10.40;92.20;;;;;;5057442;28;20082;-72
2024/03/25 12:15:51;;;;;;;8.80;1.23;;;10.50;92.40;;;;;;5053474;28;20025;-71
2024/03/25 12:18:17;;;;;;;;;;;10.70;91.90;;;;;;5053330;28;20028;-71
2024/03/25 12:20:44;;;;;;;5.25;1.40;;;10.70;92.00;;;;;;5053831;28;19905;-72
2024/03/25 12:23:10;;;;;;;6.97;1.52;;;10.80;92.10;;;;;;5053812;28;20035;-72
2024/03/25 12:25:35;;;;;;;;;;;10.80;91.80;;;;;;5052482;28;20024;-72
2024/03/25 12:28:01;;;;;;;7.35;1.52;;;10.80;91.90;;;;;;5055928;28;20417;-72
2024/03/25 12:30:26;;;;;;;;;;;10.80;91.50;;;;;;5057123;28;20379;-72
2024/03/25 12:32:52;;;;;;;8.02;1.60;;;10.70;91.50;;;;;;5051735;28;19954;-72
2024/03/25 12:35:18;;;;;;;;;;;10.50;90.70;;;;;;5054722;28;20029;-72
2024/03/25 12:37:45;;;;;;;3.33;1.13;;;10.30;91.60;;;;;;5051596;28;19936;-72
2024/03/25 12:40:14;;;;;;;9.23;1.55;;;10.30;91.90;;;;;;5055609;28;20434;-72
2024/03/25 12:42:40;;;;;;;9.85;2.22;;;10.20;91.90;;;;;;5054597;28;20057;-72
2024/03/25 12:45:06;;;;;;;6.57;1.30;;;10.20;92.00;;;;;;5056420;28;20506;-72
2024/03/25 12:47:32;;;;;;;5.72;1.85;;;10.20;91.10;;;;;;5048942;28;20044;-73
2024/03/25 12:49:58;;;;;;;;;;;10.10;90.90;;;;;;5049741;28;20044;-71
2024/03/25 12:52:23;;;;;;;4.85;1.17;;;10.00;91.00;;;;;;5048440;28;20326;-72
2024/03/25 12:54:49;;;;;;;;;;;10.00;91.70;;;;;;5054208;28;20101;-71
2024/03/25 12:57:14;;;;;;;2.30;0.70;;;10.10;91.80;;;;;;5051569;28;20263;-72
2024/03/25 12:59:40;;;;;;;4.15;1.23;;;10.20;91.90;;;;;;5057986;28;20048;-73
2024/03/25 13:02:10;;;;;;;9.35;1.15;;;10.30;92.00;;;;;;5060325;28;20032;-72
2024/03/25 13:04:37;;;;;;;4.20;1.67;;;10.40;91.50;;;;;;5050922;28;20044;-72
2024/03/25 13:07:03;;;;;;;6.18;1.38;;;10.40;90.90;;;;;;5059844;28;20103;-72
2024/03/25 13:09:29;;;;;;;10.35;1.63;;;10.40;91.20;;;;;;5054794;28;20035;-72
2024/03/25 13:11:56;;;;;;;5.28;1.30;;;10.50;91.30;;;;;;5051464;28;20028;-72
2024/03/25 13:14:22;;;;;;;5.57;1.50;;;10.50;90.80;;;;;;5050877;28;20032;-72
2024/03/25 13:16:47;;;;;;;;;;;10.50;91.10;;;;;;5054352;28;20498;-70
2024/03/25 13:19:13;;;;;;;5.07;1.23;;;10.70;91.10;;;;;;5052982;28;19905;-71
2024/03/25 13:21:38;;;;;;;;;;;11.00;90.80;;;;;;5048678;28;20029;-71
2024/03/25 13:24:04;;;;;;;11.43;1.38;;;11.30;90.70;;;;;;5051903;28;20413;-71
2024/03/25 13:26:30;;;;;;;2.60;1.20;;;11.50;90.60;;;;;;5052742;28;20021;-71
2024/03/25 13:28:55;;;;;;;;;;;11.60;90.10;;;;;;5098115;22;20047;-73
2024/03/25 13:31:20;;;;;;;6.60;1.20;;;11.60;88.60;;;;;;5093239;28;19908;-73